createdAt,value
2024-03-22T00:00:52.065Z,66.37
2024-03-22T00:01:52.132Z,66.60
2024-03-22T00:02:52.170Z,66.64
2024-03-22T00:03:52.228Z,66.73
2024-03-22T00:04:52.285Z,66.78
2024-03-22T00:58:05.495Z,67.34
2024-03-22T00:58:53.882Z,67.39
2024-03-22T00:59:53.906Z,67.45
2024-03-22T01:00:53.944Z,67.35
2024-03-22T01:01:53.979Z,67.32
2024-03-22T01:02:54.012Z,67.28
2024-03-22T01:03:54.055Z,67.33
2024-03-22T01:04:54.100Z,67.34
2024-03-22T01:05:54.134Z,67.18
2024-03-22T01:06:54.177Z,67.32
2024-03-22T01:07:54.207Z,67.26
2024-03-22T01:08:54.256Z,67.32
2024-03-22T01:09:54.283Z,67.22
2024-03-22T01:10:54.330Z,66.98
2024-03-22T01:12:05.459Z,66.96
2024-03-22T01:13:06.438Z,66.85
2024-03-22T01:14:06.474Z,66.84
2024-03-22T01:15:06.438Z,67.04
2024-03-22T01:16:06.426Z,67.02
2024-03-22T01:17:06.432Z,66.78
2024-03-22T01:18:06.424Z,66.70
2024-03-22T01:19:06.444Z,66.68
2024-03-22T01:20:06.411Z,66.75
2024-03-22T01:21:06.417Z,67.50
2024-03-22T01:22:06.429Z,66.96
2024-03-22T01:23:06.427Z,66.95
2024-03-22T01:24:06.428Z,67.19
2024-03-22T01:25:06.429Z,67.23
2024-03-22T01:26:06.422Z,67.84
2024-03-22T01:27:06.425Z,67.42
2024-03-22T01:28:06.440Z,67.10
2024-03-22T01:29:06.412Z,67.32
2024-03-22T01:30:06.424Z,67.21
2024-03-22T01:31:06.429Z,67.15
2024-03-22T01:32:06.403Z,66.87
2024-03-22T01:33:06.404Z,66.74
2024-03-22T01:34:06.415Z,66.71
2024-03-22T01:35:06.389Z,66.70
2024-03-22T01:36:06.397Z,66.87
2024-03-22T01:37:06.385Z,66.87
2024-03-22T01:38:06.384Z,67.08
2024-03-22T01:39:06.368Z,67.20
2024-03-22T01:40:06.378Z,67.23
2024-03-22T01:41:06.351Z,67.21
2024-03-22T01:42:06.340Z,67.11
2024-03-22T01:43:06.333Z,66.99
2024-03-22T01:44:06.323Z,66.77
2024-03-22T01:45:06.308Z,66.67
2024-03-22T01:46:06.324Z,66.52
2024-03-22T01:47:06.340Z,66.52
2024-03-22T01:48:06.393Z,66.62
2024-03-22T01:49:06.436Z,66.52
2024-03-22T01:50:06.518Z,66.30
2024-03-22T01:51:06.553Z,66.25
2024-03-22T01:52:06.615Z,66.33
2024-03-22T01:53:06.663Z,66.38
2024-03-22T01:54:06.704Z,66.74
2024-03-22T01:55:06.760Z,66.58
2024-03-22T01:56:06.805Z,66.83
2024-03-22T01:57:06.875Z,66.53
2024-03-22T01:58:06.914Z,66.52
2024-03-22T01:59:06.968Z,66.41
2024-03-22T02:00:07.023Z,66.37
2024-03-22T02:01:07.089Z,66.02
2024-03-22T02:02:07.119Z,65.92
2024-03-22T02:03:07.136Z,65.86
2024-03-22T02:04:07.187Z,65.87
2024-03-22T02:05:07.243Z,66.01
2024-03-22T02:06:07.311Z,66.06
2024-03-22T02:07:07.367Z,65.98
2024-03-22T02:08:07.434Z,66.04
2024-03-22T02:09:07.493Z,65.97
2024-03-22T02:10:07.559Z,65.92
2024-03-22T02:11:07.627Z,66.06
2024-03-22T02:12:07.661Z,65.74
2024-03-22T02:13:07.727Z,65.95
2024-03-22T02:14:07.787Z,65.63
2024-03-22T02:15:07.798Z,65.89
2024-03-22T02:16:07.814Z,66.02
2024-03-22T02:17:08.689Z,66.02
2024-03-22T02:18:07.867Z,66.24
2024-03-22T02:19:07.870Z,66.39
2024-03-22T02:20:07.939Z,66.44
2024-03-22T02:21:08.000Z,66.52
2024-03-22T02:22:08.080Z,66.36
2024-03-22T02:23:08.111Z,66.38
2024-03-22T02:24:08.134Z,66.12
2024-03-22T02:25:08.143Z,66.01
2024-03-22T02:26:08.174Z,66.04
2024-03-22T02:27:10.640Z,66.02
2024-03-22T02:28:08.188Z,65.98
2024-03-22T02:29:08.194Z,66.49
2024-03-22T02:30:08.193Z,66.44
2024-03-22T02:31:08.199Z,67.16
2024-03-22T02:32:08.183Z,67.29
2024-03-22T02:33:08.184Z,67.96
2024-03-22T02:34:08.181Z,67.40
2024-03-22T02:35:08.178Z,67.37
2024-03-22T02:36:08.183Z,67.64
2024-03-22T02:37:08.167Z,67.31
2024-03-22T02:38:08.181Z,67.07
2024-03-22T02:39:08.184Z,67.14
2024-03-22T02:40:08.176Z,67.04
2024-03-22T02:41:08.165Z,66.91
2024-03-22T02:42:08.171Z,66.91
2024-03-22T02:43:08.177Z,67.14
2024-03-22T02:44:08.186Z,66.99
2024-03-22T02:45:08.197Z,66.78
2024-03-22T02:46:08.208Z,66.79
2024-03-22T02:47:08.183Z,66.89
2024-03-22T02:48:08.178Z,66.91
2024-03-22T02:49:08.168Z,66.74
2024-03-22T02:50:08.180Z,66.91
2024-03-22T02:51:08.159Z,67.29
2024-03-22T02:52:08.141Z,67.07
2024-03-22T02:53:08.156Z,66.96
2024-03-22T02:54:08.131Z,66.88
2024-03-22T02:55:08.188Z,66.75
2024-03-22T02:56:08.121Z,66.88
2024-03-22T02:57:08.119Z,66.84
2024-03-22T02:58:08.132Z,67.82
2024-03-22T02:59:08.116Z,68.39
2024-03-22T03:00:08.124Z,67.77
2024-03-22T03:01:08.120Z,68.00
2024-03-22T03:02:08.094Z,67.70
2024-03-22T03:03:08.101Z,67.67
2024-03-22T03:04:08.077Z,67.86
2024-03-22T03:05:08.062Z,67.50
2024-03-22T03:06:08.092Z,67.51
2024-03-22T03:07:08.134Z,67.37
2024-03-22T03:08:08.172Z,67.65
2024-03-22T03:09:08.219Z,67.48
2024-03-22T03:10:08.297Z,67.21
2024-03-22T03:11:08.380Z,67.05
2024-03-22T03:12:10.400Z,66.91
2024-03-22T03:13:08.436Z,67.40
2024-03-22T03:14:08.410Z,67.03
2024-03-22T03:15:08.398Z,67.74
2024-03-22T03:16:08.389Z,67.42
2024-03-22T03:17:08.400Z,67.92
2024-03-22T03:18:08.402Z,67.80
2024-03-22T03:19:08.374Z,67.46
2024-03-22T03:20:08.350Z,67.17
2024-03-22T03:21:08.359Z,67.64
2024-03-22T03:22:08.392Z,67.43
2024-03-22T03:23:08.360Z,68.09
2024-03-22T03:24:08.344Z,67.70
2024-03-22T03:25:08.408Z,68.29
2024-03-22T03:26:08.474Z,67.91
2024-03-22T03:27:08.542Z,68.26
2024-03-22T03:28:08.595Z,67.87
2024-03-22T03:29:08.661Z,69.08
2024-03-22T03:30:08.730Z,69.95
2024-03-22T03:31:08.776Z,68.61
2024-03-22T03:32:08.825Z,69.42
2024-03-22T03:33:08.903Z,69.17
2024-03-22T03:34:08.944Z,68.62
2024-03-22T03:35:09.021Z,68.34
2024-03-22T03:36:09.090Z,67.90
2024-03-22T03:37:09.136Z,68.46
2024-03-22T03:38:09.215Z,68.42
2024-03-22T03:39:09.271Z,67.88
2024-03-22T03:40:09.397Z,67.59
2024-03-22T03:41:09.380Z,68.48
2024-03-22T03:42:09.412Z,69.02
2024-03-22T03:43:09.554Z,68.48
2024-03-22T03:44:09.540Z,68.47
2024-03-22T03:45:09.605Z,68.84
2024-03-22T03:46:09.661Z,68.62
2024-03-22T03:47:09.729Z,68.11
2024-03-22T03:48:09.799Z,67.64
2024-03-22T03:49:09.860Z,67.12
2024-03-22T03:50:09.948Z,67.46
2024-03-22T03:51:09.995Z,67.28
2024-03-22T03:52:10.072Z,67.51
2024-03-22T03:53:10.121Z,67.78
2024-03-22T03:54:10.193Z,67.11
2024-03-22T03:55:10.211Z,67.03
2024-03-22T03:56:10.280Z,66.74
2024-03-22T03:57:10.315Z,68.20
2024-03-22T03:58:10.395Z,68.84
2024-03-22T03:59:10.422Z,68.30
2024-03-22T04:00:10.494Z,68.23
2024-03-22T04:01:10.506Z,67.61
2024-03-22T04:02:10.538Z,67.18
2024-03-22T04:03:10.567Z,66.97
2024-03-22T04:04:10.559Z,67.97
2024-03-22T04:05:10.590Z,68.48
2024-03-22T04:06:10.635Z,67.79
2024-03-22T04:07:10.707Z,67.52
2024-03-22T04:08:10.731Z,67.21
2024-03-22T04:09:10.762Z,66.97
2024-03-22T04:10:10.841Z,67.12
2024-03-22T04:11:10.865Z,66.99
2024-03-22T04:12:10.929Z,67.96
2024-03-22T04:13:10.998Z,68.78
2024-03-22T04:14:11.046Z,67.60
2024-03-22T04:15:11.112Z,67.33
2024-03-22T04:16:11.244Z,67.38
2024-03-22T04:17:11.266Z,67.24
2024-03-22T04:18:11.328Z,67.15
2024-03-22T04:19:11.391Z,67.93
2024-03-22T04:20:11.469Z,67.62
2024-03-22T04:21:11.519Z,67.85
2024-03-22T04:22:11.598Z,67.53
2024-03-22T04:23:11.643Z,67.59
2024-03-22T04:24:11.715Z,67.88
2024-03-22T04:25:11.774Z,67.21
2024-03-22T04:26:11.823Z,66.77
2024-03-22T04:27:11.854Z,67.00
2024-03-22T04:28:11.902Z,66.70
2024-03-22T04:29:11.943Z,67.31
2024-03-22T04:30:11.998Z,67.48
2024-03-22T04:31:12.056Z,67.38
2024-03-22T04:32:12.113Z,67.56
2024-03-22T04:33:12.156Z,67.83
2024-03-22T04:34:12.219Z,67.18
2024-03-22T04:35:12.279Z,67.18
2024-03-22T04:36:12.350Z,66.99
2024-03-22T04:37:19.723Z,66.63
2024-03-22T04:38:20.741Z,66.90
2024-03-22T04:39:20.764Z,66.72
2024-03-22T04:40:20.806Z,66.55
2024-03-22T04:41:20.852Z,66.78
2024-03-22T04:42:20.852Z,66.94
2024-03-22T04:43:20.880Z,67.59
2024-03-22T04:44:20.923Z,67.24
2024-03-22T04:45:20.949Z,67.88
2024-03-22T04:46:20.990Z,67.07
2024-03-22T04:47:21.024Z,66.54
2024-03-22T04:48:21.040Z,66.50
2024-03-22T04:49:21.079Z,67.78
2024-03-22T04:50:21.095Z,67.17
2024-03-22T04:51:21.136Z,66.89
2024-03-22T04:52:21.174Z,66.61
2024-03-22T04:53:21.193Z,66.53
2024-03-22T04:54:21.238Z,66.67
2024-03-22T04:55:21.282Z,67.30
2024-03-22T04:56:21.297Z,67.26
2024-03-22T04:57:21.352Z,67.53
2024-03-22T04:58:39.194Z,67.12
2024-03-22T04:59:40.183Z,67.11
2024-03-22T05:00:40.197Z,66.54
2024-03-22T05:01:40.210Z,66.47
2024-03-22T05:02:40.222Z,66.53
2024-03-22T05:03:40.239Z,66.48
2024-03-22T05:04:40.243Z,66.29
2024-03-22T05:05:40.256Z,66.44
2024-03-22T05:06:40.259Z,66.52
2024-03-22T05:07:40.270Z,66.22
2024-03-22T05:08:40.352Z,66.61
2024-03-22T05:09:40.317Z,67.05
2024-03-22T05:10:40.324Z,66.86
2024-03-22T05:11:40.332Z,67.79
2024-03-22T05:12:40.369Z,67.48
2024-03-22T05:13:40.372Z,67.65
2024-03-22T05:14:40.397Z,67.87
2024-03-22T05:15:40.389Z,67.75
2024-03-22T05:16:40.398Z,67.12
2024-03-22T05:17:40.401Z,66.86
2024-03-22T05:18:40.425Z,66.65
2024-03-22T05:19:40.434Z,66.36
2024-03-22T05:20:40.488Z,66.42
2024-03-22T05:21:40.467Z,66.27
2024-03-22T05:22:40.492Z,66.14
2024-03-22T05:23:40.529Z,65.85
2024-03-22T05:24:40.589Z,65.78
2024-03-22T05:25:40.694Z,65.90
2024-03-22T05:26:40.739Z,65.80
2024-03-22T05:27:40.816Z,66.64
2024-03-22T05:28:40.881Z,66.31
2024-03-22T05:29:41.044Z,66.17
2024-03-22T05:30:41.022Z,65.91
2024-03-22T05:31:41.101Z,66.08
2024-03-22T05:32:41.234Z,66.25
2024-03-22T05:33:41.829Z,66.36
2024-03-22T05:34:41.350Z,66.59
2024-03-22T05:35:41.420Z,66.27
2024-03-22T05:36:41.484Z,66.13
2024-03-22T05:37:41.564Z,66.59
2024-03-22T05:38:41.609Z,67.23
2024-03-22T05:39:41.692Z,67.04
2024-03-22T05:40:41.719Z,67.75
2024-03-22T05:41:41.811Z,67.96
2024-03-22T05:42:41.835Z,67.97
2024-03-22T05:43:41.899Z,68.47
2024-03-22T05:44:42.030Z,67.92
2024-03-22T05:45:42.055Z,67.41
2024-03-22T05:46:42.129Z,67.19
2024-03-22T05:47:42.235Z,67.69
2024-03-22T05:48:42.307Z,68.18
2024-03-22T05:49:42.405Z,68.14
2024-03-22T05:50:42.521Z,69.75
2024-03-22T05:51:42.643Z,68.78
2024-03-22T05:52:42.687Z,68.31
2024-03-22T05:53:42.832Z,68.77
2024-03-22T05:54:42.852Z,67.90
2024-03-22T05:55:42.942Z,67.91
2024-03-22T05:56:43.028Z,68.15
2024-03-22T05:57:43.096Z,67.44
2024-03-22T05:58:43.188Z,67.34
2024-03-22T05:59:43.257Z,67.03
2024-03-22T06:00:43.561Z,67.41
2024-03-22T06:01:43.399Z,67.42
2024-03-22T06:02:43.466Z,67.80
2024-03-22T06:03:43.512Z,67.77
2024-03-22T06:04:45.986Z,67.74
2024-03-22T06:05:43.620Z,67.35
2024-03-22T06:06:43.612Z,67.08
2024-03-22T06:07:43.649Z,66.61
2024-03-22T06:08:43.671Z,66.08
2024-03-22T06:09:43.668Z,66.38
2024-03-22T06:10:43.671Z,67.14
2024-03-22T06:11:43.705Z,66.29
2024-03-22T06:12:43.710Z,66.73
2024-03-22T06:13:43.734Z,66.44
2024-03-22T06:14:43.777Z,66.82
2024-03-22T06:15:43.762Z,66.24
2024-03-22T06:16:43.779Z,66.43
2024-03-22T06:17:43.779Z,66.69
2024-03-22T06:18:43.782Z,65.59
2024-03-22T06:19:43.817Z,65.82
2024-03-22T06:20:43.830Z,66.14
2024-03-22T06:21:43.858Z,65.38
2024-03-22T06:22:43.832Z,65.91
2024-03-22T06:23:43.927Z,65.63
2024-03-22T06:24:43.908Z,66.02
2024-03-22T06:25:43.887Z,65.17
2024-03-22T06:26:46.072Z,65.36
2024-03-22T06:27:45.732Z,65.33
2024-03-22T06:28:43.940Z,65.35
2024-03-22T06:29:43.961Z,65.25
2024-03-22T06:30:43.943Z,65.62
2024-03-22T06:31:43.953Z,65.19
2024-03-22T06:32:44.346Z,65.73
2024-03-22T06:33:44.009Z,66.08
2024-03-22T06:34:44.017Z,66.49
2024-03-22T06:35:44.015Z,65.67
2024-03-22T06:36:44.317Z,65.80
2024-03-22T06:37:44.055Z,65.83
2024-03-22T06:38:44.059Z,66.29
2024-03-22T06:39:44.082Z,66.99
2024-03-22T06:40:44.073Z,66.29
2024-03-22T06:41:44.129Z,66.07
2024-03-22T06:42:44.107Z,66.30
2024-03-22T06:43:44.108Z,65.47
2024-03-22T06:44:44.123Z,66.24
2024-03-22T06:45:44.146Z,65.86
2024-03-22T06:46:44.157Z,65.81
2024-03-22T06:47:44.414Z,66.01
2024-03-22T06:48:44.205Z,65.65
2024-03-22T06:49:44.190Z,65.94
2024-03-22T06:50:44.219Z,65.50
2024-03-22T06:51:44.236Z,65.12
2024-03-22T06:52:44.330Z,65.12
2024-03-22T06:53:44.275Z,65.22
2024-03-22T06:54:44.270Z,65.46
2024-03-22T06:55:44.329Z,65.47
2024-03-22T06:56:44.378Z,65.27
2024-03-22T06:57:44.832Z,65.15
2024-03-22T06:58:44.486Z,65.05
2024-03-22T06:59:47.759Z,64.47
2024-03-22T07:00:44.554Z,64.87
2024-03-22T07:01:44.546Z,66.14
2024-03-22T07:02:44.834Z,65.68
2024-03-22T07:03:45.030Z,65.17
2024-03-22T07:04:44.859Z,65.70
2024-03-22T07:05:44.562Z,64.67
2024-03-22T07:06:44.832Z,65.17
2024-03-22T07:07:44.554Z,65.36
2024-03-22T07:08:44.623Z,65.54
2024-03-22T07:09:44.890Z,64.66
2024-03-22T07:10:44.574Z,65.36
2024-03-22T07:11:45.074Z,65.03
2024-03-22T07:12:44.659Z,65.28
2024-03-22T07:13:44.590Z,65.34
2024-03-22T07:14:44.630Z,65.29
2024-03-22T07:15:44.646Z,65.61
2024-03-22T07:16:44.826Z,65.43
2024-03-22T07:17:44.778Z,65.39
2024-03-22T07:18:44.867Z,65.06
2024-03-22T07:19:44.680Z,65.46
2024-03-22T07:20:44.907Z,65.32
2024-03-22T07:21:44.859Z,65.81
2024-03-22T07:22:44.772Z,66.15
2024-03-22T07:23:44.735Z,66.43
2024-03-22T07:24:44.753Z,65.97
2024-03-22T07:25:44.803Z,66.36
2024-03-22T07:26:44.828Z,65.97
2024-03-22T07:27:44.855Z,66.09
2024-03-22T07:28:45.220Z,66.20
2024-03-22T07:29:45.184Z,65.75
2024-03-22T07:30:45.034Z,65.25
2024-03-22T07:31:45.916Z,65.49
2024-03-22T07:32:45.639Z,65.76
2024-03-22T07:33:45.509Z,65.14
2024-03-22T07:34:45.501Z,64.67
2024-03-22T07:35:45.542Z,64.75
2024-03-22T07:36:45.876Z,64.78
2024-03-22T07:37:45.630Z,65.14
2024-03-22T07:38:45.687Z,63.96
2024-03-22T07:39:45.256Z,63.62
2024-03-22T07:40:45.318Z,63.80
2024-03-22T07:41:45.994Z,63.64
2024-03-22T07:42:45.526Z,64.24
2024-03-22T07:43:45.573Z,63.31
2024-03-22T07:44:45.899Z,62.85
2024-03-22T07:45:46.072Z,62.02
2024-03-22T07:46:46.097Z,61.00
2024-03-22T07:47:45.622Z,59.83
2024-03-22T07:48:45.607Z,60.20
2024-03-22T07:49:45.604Z,59.90
2024-03-22T07:50:45.638Z,59.90
2024-03-22T07:51:45.843Z,59.63
2024-03-22T07:52:45.901Z,59.21
2024-03-22T07:53:45.832Z,59.33
2024-03-22T07:54:45.768Z,59.31
2024-03-22T07:55:45.866Z,59.15
2024-03-22T07:56:46.000Z,58.59
2024-03-22T07:57:46.265Z,58.62
2024-03-22T07:58:45.920Z,58.24
2024-03-22T07:59:45.992Z,58.30
2024-03-22T08:00:45.992Z,58.20
2024-03-22T08:01:46.403Z,59.55
2024-03-22T08:02:46.003Z,58.93
2024-03-22T08:03:46.437Z,58.72
2024-03-22T08:04:46.422Z,57.72
2024-03-22T08:05:46.887Z,57.35
2024-03-22T08:06:46.913Z,56.98
2024-03-22T08:07:46.345Z,56.45
2024-03-22T08:08:46.168Z,57.25
2024-03-22T08:09:46.222Z,56.55
2024-03-22T08:10:46.277Z,57.67
2024-03-22T08:11:46.229Z,56.43
2024-03-22T08:12:46.294Z,56.08
2024-03-22T08:13:46.324Z,56.38
2024-03-22T08:14:46.356Z,56.68
2024-03-22T08:15:46.394Z,56.49
2024-03-22T08:16:46.399Z,55.84
2024-03-22T08:17:46.434Z,56.09
2024-03-22T08:18:46.440Z,56.51
2024-03-22T08:19:46.458Z,55.88
2024-03-22T08:20:46.709Z,56.08
2024-03-22T08:21:46.584Z,56.92
2024-03-22T08:22:46.605Z,56.88
2024-03-22T08:23:46.914Z,56.32
2024-03-22T08:24:46.852Z,55.88
2024-03-22T08:25:46.735Z,56.04
2024-03-22T08:26:46.725Z,56.67
2024-03-22T08:27:59.707Z,57.67
2024-03-22T08:28:47.119Z,57.41
2024-03-22T08:29:47.853Z,57.48
2024-03-22T08:30:46.702Z,56.60
2024-03-22T08:31:46.859Z,56.43
2024-03-22T08:32:46.599Z,57.67
2024-03-22T08:33:46.861Z,57.10
2024-03-22T08:34:46.629Z,56.55
2024-03-22T08:35:46.880Z,58.00
2024-03-22T08:36:46.540Z,58.15
2024-03-22T08:37:46.530Z,56.96
2024-03-22T08:38:46.528Z,57.41
2024-03-22T08:39:46.561Z,57.71
2024-03-22T08:40:46.501Z,57.57
2024-03-22T08:41:47.010Z,58.04
2024-03-22T08:42:46.459Z,57.60
2024-03-22T08:43:45.856Z,58.05
2024-03-22T08:44:46.769Z,57.51
2024-03-22T08:45:46.435Z,57.28
2024-03-22T08:46:46.899Z,56.72
2024-03-22T08:47:46.429Z,57.08
2024-03-22T08:48:46.409Z,58.03
2024-03-22T08:49:46.898Z,57.83
2024-03-22T08:50:46.428Z,58.81
2024-03-22T08:51:46.454Z,58.23
2024-03-22T08:52:46.463Z,56.90
2024-03-22T08:53:46.610Z,56.43
2024-03-22T08:54:46.852Z,56.01
2024-03-22T08:55:46.520Z,55.72
2024-03-22T08:56:46.884Z,56.52
2024-03-22T08:57:54.238Z,57.59
2024-03-22T08:58:46.547Z,56.54
2024-03-22T08:59:46.890Z,56.16
2024-03-22T09:00:46.498Z,56.02
2024-03-22T09:01:46.507Z,55.69
2024-03-22T09:02:46.482Z,56.02
2024-03-22T09:03:46.481Z,56.68
2024-03-22T09:04:46.885Z,56.22
2024-03-22T09:05:53.009Z,55.11
2024-03-22T09:06:46.402Z,55.53
2024-03-22T09:07:47.350Z,55.36
2024-03-22T09:08:46.536Z,54.71
2024-03-22T09:09:46.867Z,55.36
2024-03-22T09:10:46.628Z,55.02
2024-03-22T09:11:46.556Z,55.74
2024-03-22T09:12:46.584Z,55.97
2024-03-22T09:13:46.561Z,55.70
2024-03-22T09:14:46.860Z,55.18
2024-03-22T09:15:46.925Z,54.55
2024-03-22T09:16:46.565Z,55.04
2024-03-22T09:17:46.862Z,55.27
2024-03-22T09:18:46.521Z,54.78
2024-03-22T09:19:46.519Z,55.01
2024-03-22T09:20:46.559Z,55.09
2024-03-22T09:21:46.565Z,54.06
2024-03-22T09:22:47.854Z,53.67
2024-03-22T09:23:46.632Z,54.45
2024-03-22T09:24:46.541Z,53.76
2024-03-22T09:25:48.409Z,54.11
2024-03-22T09:26:46.867Z,54.52
2024-03-22T09:27:46.903Z,53.79
2024-03-22T09:28:46.893Z,53.22
2024-03-22T09:29:46.445Z,53.27
2024-03-22T09:30:56.463Z,53.71
2024-03-22T09:31:46.630Z,53.90
2024-03-22T09:32:46.361Z,53.88
2024-03-22T09:33:46.336Z,53.43
2024-03-22T09:34:46.297Z,53.43
2024-03-22T09:35:46.311Z,52.80
2024-03-22T09:36:46.230Z,53.12
2024-03-22T09:37:46.361Z,53.00
2024-03-22T09:38:46.146Z,53.08
2024-03-22T09:39:46.172Z,52.20
2024-03-22T09:40:46.150Z,51.95
2024-03-22T09:41:49.040Z,52.61
2024-03-22T09:42:46.369Z,52.55
2024-03-22T09:43:46.002Z,51.92
2024-03-22T09:44:49.194Z,51.44
2024-03-22T09:45:45.915Z,51.96
2024-03-22T09:46:45.891Z,51.81
2024-03-22T09:47:45.882Z,51.67
2024-03-22T09:48:45.818Z,51.61
2024-03-22T09:49:45.822Z,51.65
2024-03-22T09:50:45.778Z,51.74
2024-03-22T09:51:45.697Z,50.97
2024-03-22T09:52:45.878Z,50.95
2024-03-22T09:53:47.096Z,51.09
2024-03-22T09:54:45.568Z,50.56
2024-03-22T09:55:45.529Z,50.77
2024-03-22T09:56:45.493Z,50.25
2024-03-22T09:57:45.462Z,50.13
2024-03-22T09:58:45.397Z,49.67
2024-03-22T09:59:46.338Z,50.15
2024-03-22T10:00:45.408Z,50.42
2024-03-22T10:01:45.352Z,50.78
2024-03-22T10:02:45.378Z,50.85
2024-03-22T10:03:45.181Z,51.08
2024-03-22T10:04:45.158Z,50.76
2024-03-22T10:05:46.798Z,49.65
2024-03-22T10:06:45.078Z,49.39
2024-03-22T10:07:45.381Z,48.55
2024-03-22T10:08:45.034Z,48.97
2024-03-22T10:09:45.039Z,47.80
2024-03-22T10:10:44.976Z,48.24
2024-03-22T10:11:46.605Z,48.41
2024-03-22T10:12:46.395Z,48.61
2024-03-22T10:13:45.008Z,47.82
2024-03-22T10:14:45.404Z,48.38
2024-03-22T10:15:45.087Z,48.68
2024-03-22T10:16:45.111Z,48.32
2024-03-22T10:17:45.109Z,47.68
2024-03-22T10:18:45.376Z,47.23
2024-03-22T10:19:45.079Z,47.13
2024-03-22T10:20:45.027Z,47.58
2024-03-22T10:21:46.003Z,47.22
2024-03-22T10:22:45.516Z,47.17
2024-03-22T10:23:44.920Z,47.50
2024-03-22T10:24:44.895Z,47.42
2024-03-22T10:25:44.837Z,45.76
2024-03-22T10:26:44.852Z,46.03
2024-03-22T10:27:44.834Z,45.76
2024-03-22T10:28:44.976Z,44.74
2024-03-22T10:29:46.452Z,45.93
2024-03-22T10:30:44.759Z,44.96
2024-03-22T10:31:44.731Z,44.66
2024-03-22T10:32:45.002Z,44.28
2024-03-22T10:33:44.710Z,45.30
2024-03-22T10:34:44.949Z,45.67
2024-03-22T10:35:44.597Z,46.64
2024-03-22T10:36:44.482Z,47.70
2024-03-22T10:37:47.900Z,47.64
2024-03-22T10:38:44.407Z,47.64
2024-03-22T10:39:44.356Z,45.52
2024-03-22T10:40:44.369Z,44.07
2024-03-22T10:41:44.980Z,43.71
2024-03-22T10:42:44.457Z,43.60
2024-03-22T10:43:45.843Z,44.04
2024-03-22T10:44:44.432Z,44.86
2024-03-22T10:45:44.178Z,44.84
2024-03-22T10:46:44.012Z,45.28
2024-03-22T10:47:44.033Z,45.36
2024-03-22T10:48:43.942Z,44.63
2024-03-22T10:49:44.662Z,45.45
2024-03-22T10:50:43.837Z,45.19
2024-03-22T10:51:43.794Z,45.56
2024-03-22T10:52:43.717Z,43.02
2024-03-22T10:53:43.669Z,44.45
2024-03-22T10:54:43.930Z,45.15
2024-03-22T10:55:43.619Z,44.24
2024-03-22T10:56:43.564Z,43.41
2024-03-22T10:57:44.461Z,42.86
2024-03-22T10:58:43.504Z,43.96
2024-03-22T10:59:43.384Z,43.25
2024-03-22T11:00:45.242Z,43.48
2024-03-22T11:01:43.257Z,43.52
2024-03-22T11:02:43.247Z,43.15
2024-03-22T11:03:43.256Z,43.70
2024-03-22T11:04:43.449Z,43.85
2024-03-22T11:05:43.135Z,43.46
2024-03-22T11:06:43.005Z,43.66
2024-03-22T11:07:42.960Z,43.39
2024-03-22T11:08:42.884Z,43.29
2024-03-22T11:09:42.891Z,43.18
2024-03-22T11:10:42.801Z,44.10
2024-03-22T11:11:42.709Z,43.59
2024-03-22T11:12:44.167Z,43.35
2024-03-22T11:13:42.901Z,43.20
2024-03-22T11:14:42.901Z,43.40
2024-03-22T11:15:41.738Z,42.70
2024-03-22T11:16:42.786Z,43.28
2024-03-22T11:17:42.724Z,42.49
2024-03-22T11:18:42.694Z,42.49
2024-03-22T11:19:43.008Z,42.14
2024-03-22T11:20:44.556Z,42.55
2024-03-22T11:21:42.679Z,41.95
2024-03-22T11:22:42.862Z,41.83
2024-03-22T11:23:42.612Z,41.50
2024-03-22T11:24:42.449Z,40.74
2024-03-22T11:25:43.031Z,41.61
2024-03-22T11:26:44.688Z,42.39
2024-03-22T11:27:42.279Z,41.95
2024-03-22T11:28:42.275Z,41.65
2024-03-22T11:29:42.146Z,41.76
2024-03-22T11:30:42.410Z,41.47
2024-03-22T11:31:42.029Z,42.32
2024-03-22T11:32:41.979Z,42.76
2024-03-22T11:33:41.866Z,41.48
2024-03-22T11:34:42.052Z,40.15
2024-03-22T11:35:41.760Z,40.76
2024-03-22T11:36:41.736Z,40.78
2024-03-22T11:37:41.604Z,39.95
2024-03-22T11:38:41.582Z,39.14
2024-03-22T11:39:41.461Z,39.67
2024-03-22T11:40:43.301Z,40.65
2024-03-22T11:41:41.312Z,39.47
2024-03-22T11:42:41.991Z,39.42
2024-03-22T11:43:41.593Z,39.23
2024-03-22T11:44:41.622Z,39.92
2024-03-22T11:45:40.714Z,39.62
2024-03-22T11:46:41.342Z,39.43
2024-03-22T11:47:41.683Z,38.63
2024-03-22T11:48:41.215Z,38.40
2024-03-22T11:49:41.343Z,38.60
2024-03-22T11:50:41.081Z,38.24
2024-03-22T11:51:40.946Z,38.74
2024-03-22T11:52:41.030Z,38.60
2024-03-22T11:53:40.880Z,37.73
2024-03-22T11:54:40.762Z,37.48
2024-03-22T11:55:40.893Z,38.41
2024-03-22T11:56:41.618Z,38.67
2024-03-22T11:57:40.043Z,40.02
2024-03-22T11:58:39.951Z,37.07
2024-03-22T11:59:39.856Z,37.76
2024-03-22T12:01:03.021Z,36.77
2024-03-22T12:01:39.794Z,36.53
2024-03-22T12:02:39.640Z,36.75
2024-03-22T12:03:39.602Z,36.95
2024-03-22T12:04:40.465Z,37.04
2024-03-22T12:05:39.975Z,36.67
2024-03-22T12:06:39.345Z,36.35
2024-03-22T12:07:39.245Z,36.69
2024-03-22T12:08:39.162Z,36.91
2024-03-22T12:09:39.070Z,37.14
2024-03-22T12:10:39.408Z,36.55
2024-03-22T12:11:38.942Z,36.40
2024-03-22T12:12:38.797Z,37.00
2024-03-22T12:13:38.731Z,37.54
2024-03-22T12:14:38.713Z,37.88
2024-03-22T12:15:38.691Z,38.02
2024-03-22T12:16:38.643Z,39.79
2024-03-22T12:17:38.616Z,38.28
2024-03-22T12:18:38.583Z,38.56
2024-03-22T12:19:38.612Z,38.56
2024-03-22T12:20:39.218Z,37.45
2024-03-22T12:21:38.472Z,36.59
2024-03-22T12:22:38.916Z,35.87
2024-03-22T12:23:38.429Z,36.24
2024-03-22T12:24:38.413Z,36.61
2024-03-22T12:25:38.373Z,36.59
2024-03-22T12:26:38.423Z,36.51
2024-03-22T12:27:39.798Z,37.03
2024-03-22T12:28:38.161Z,36.31
2024-03-22T12:29:38.111Z,36.57
2024-03-22T12:31:09.843Z,35.57
2024-03-22T12:31:37.955Z,36.29
2024-03-22T12:32:37.884Z,36.24
2024-03-22T12:33:37.915Z,36.04
2024-03-22T12:34:37.689Z,36.76
2024-03-22T12:35:37.612Z,36.42
2024-03-22T12:36:37.518Z,36.44
2024-03-22T12:37:37.952Z,36.71
2024-03-22T12:38:37.350Z,36.56
2024-03-22T12:39:37.280Z,36.29
2024-03-22T12:40:37.519Z,35.02
2024-03-22T12:41:37.252Z,34.95
2024-03-22T12:42:37.225Z,35.11
2024-03-22T12:43:43.722Z,35.68
2024-03-22T12:44:37.117Z,35.58
2024-03-22T12:45:37.043Z,35.88
2024-03-22T12:46:36.997Z,35.59
2024-03-22T12:47:36.874Z,35.22
2024-03-22T12:48:36.795Z,35.32
2024-03-22T12:49:36.709Z,35.83
2024-03-22T12:50:36.602Z,35.54
2024-03-22T12:51:36.955Z,35.84
2024-03-22T12:52:36.436Z,35.19
2024-03-22T12:53:36.360Z,33.93
2024-03-22T12:54:36.266Z,33.83
2024-03-22T12:55:36.172Z,34.12
2024-03-22T12:56:36.126Z,34.30
2024-03-22T12:57:35.993Z,34.66
2024-03-22T12:58:35.985Z,33.27
2024-03-22T12:59:35.808Z,33.78
2024-03-22T13:00:35.706Z,33.59
2024-03-22T13:01:35.623Z,33.38
2024-03-22T13:02:35.950Z,33.22
2024-03-22T13:03:35.427Z,33.39
2024-03-22T13:04:35.330Z,33.93
2024-03-22T13:05:35.226Z,34.34
2024-03-22T13:06:35.116Z,34.18
2024-03-22T13:07:35.041Z,34.46
2024-03-22T13:08:34.946Z,33.94
2024-03-22T13:09:34.869Z,33.63
2024-03-22T13:10:34.742Z,33.97
2024-03-22T13:11:34.642Z,33.85
2024-03-22T13:12:34.579Z,34.12
2024-03-22T13:13:34.450Z,33.94
2024-03-22T13:14:34.373Z,32.97
2024-03-22T13:15:34.265Z,33.62
2024-03-22T13:16:34.183Z,32.85
2024-03-22T13:17:34.083Z,33.18
2024-03-22T13:18:33.969Z,33.18
2024-03-22T13:19:33.892Z,33.25
2024-03-22T13:20:33.781Z,33.70
2024-03-22T13:21:33.652Z,32.73
2024-03-22T13:22:33.970Z,32.49
2024-03-22T13:23:34.582Z,32.22
2024-03-22T13:24:33.437Z,32.39
2024-03-22T13:25:33.368Z,32.09
2024-03-22T13:26:33.326Z,32.80
2024-03-22T13:27:33.303Z,32.73
2024-03-22T13:28:33.282Z,32.33
2024-03-22T13:29:33.186Z,32.17
2024-03-22T13:30:33.155Z,31.67
2024-03-22T13:31:36.136Z,31.96
2024-03-22T13:32:33.438Z,32.43
2024-03-22T13:33:32.914Z,31.75
2024-03-22T13:34:32.825Z,32.09
2024-03-22T13:35:32.687Z,31.70
2024-03-22T13:36:32.611Z,32.00
2024-03-22T13:37:32.477Z,32.08
2024-03-22T13:38:32.384Z,32.52
2024-03-22T13:39:32.269Z,31.90
2024-03-22T13:40:32.162Z,31.82
2024-03-22T13:41:32.038Z,31.80
2024-03-22T13:42:32.452Z,31.59
2024-03-22T13:43:31.832Z,31.12
2024-03-22T13:44:31.758Z,29.42
2024-03-22T13:45:33.894Z,29.84